createdAt,value
2017-11-13T00:01:48.975Z,17.60
2017-11-13T00:06:50.672Z,20.20
2017-11-13T00:11:52.384Z,19.00
2017-11-13T00:16:54.066Z,19.10
2017-11-13T00:21:55.775Z,17.20
2017-11-13T00:26:57.476Z,16.43
2017-11-13T00:31:59.190Z,16.47
2017-11-13T00:37:00.866Z,15.87
2017-11-13T00:42:02.541Z,13.47
2017-11-13T00:47:04.268Z,13.17
2017-11-13T00:52:05.953Z,13.27
2017-11-13T00:57:07.636Z,12.13
2017-11-13T01:02:09.332Z,12.43
2017-11-13T01:07:11.802Z,12.80
2017-11-13T01:12:14.208Z,11.70
2017-11-13T01:17:15.896Z,12.70
2017-11-13T01:22:17.593Z,12.77
2017-11-13T01:27:19.288Z,13.40
2017-11-13T01:32:20.975Z,13.17
2017-11-13T01:37:22.671Z,12.40
2017-11-13T01:42:24.353Z,11.37
2017-11-13T01:47:26.060Z,11.10
2017-11-13T01:52:27.830Z,11.10
2017-11-13T01:57:30.280Z,8.70
2017-11-13T02:02:32.050Z,7.53
2017-11-13T02:07:34.590Z,7.03
2017-11-13T02:12:36.338Z,7.10
2017-11-13T02:17:38.110Z,6.23
2017-11-13T02:22:39.928Z,6.50
2017-11-13T02:27:41.695Z,6.40
2017-11-13T02:32:43.442Z,5.77
2017-11-13T02:37:45.188Z,5.60
2017-11-13T02:42:46.948Z,5.20
2017-11-13T02:47:49.431Z,4.70
2017-11-13T02:52:51.172Z,4.80
2017-11-13T02:57:52.966Z,4.90
2017-11-13T03:02:55.371Z,4.40
2017-11-13T03:07:57.848Z,4.43
2017-11-13T03:12:59.556Z,4.20
2017-11-13T03:18:01.395Z,4.00
2017-11-13T03:23:03.125Z,4.50
2017-11-13T03:28:04.811Z,3.40
2017-11-13T03:33:06.491Z,3.37
2017-11-13T03:38:08.964Z,3.67
2017-11-13T03:43:10.651Z,3.40
2017-11-13T03:48:12.323Z,3.23
2017-11-13T03:53:14.016Z,3.03
2017-11-13T03:58:15.719Z,2.93
2017-11-13T04:03:17.395Z,3.30
2017-11-13T04:08:19.883Z,3.10
2017-11-13T04:13:26.900Z,2.50
2017-11-13T04:18:28.675Z,2.83
2017-11-13T04:23:30.407Z,2.33
2017-11-13T04:28:32.096Z,2.57
2017-11-13T04:33:33.796Z,3.07
2017-11-13T04:38:40.581Z,2.63
2017-11-13T04:43:42.426Z,2.60
2017-11-13T04:48:44.148Z,2.70
2017-11-13T04:53:46.567Z,2.70
2017-11-13T04:58:49.045Z,1.97
2017-11-13T05:03:50.745Z,2.97
2017-11-13T05:08:52.480Z,3.00
2017-11-13T05:13:54.902Z,2.87
2017-11-13T05:18:56.681Z,3.33
2017-11-13T05:23:58.396Z,3.40
2017-11-13T05:29:00.869Z,3.60
2017-11-13T05:34:02.586Z,3.37
2017-11-13T05:39:04.412Z,3.70
2017-11-13T05:44:06.822Z,3.60
2017-11-13T05:49:09.249Z,3.13
2017-11-13T05:54:10.924Z,3.63
2017-11-13T05:59:12.613Z,3.80
2017-11-13T06:04:14.288Z,4.43
2017-11-13T06:09:15.997Z,3.30
2017-11-13T06:14:17.698Z,3.70
2017-11-13T06:19:19.382Z,3.83
2017-11-13T06:24:21.072Z,2.93
2017-11-13T06:29:22.764Z,3.60
2017-11-13T06:34:25.183Z,4.00
2017-11-13T06:39:27.235Z,3.77
2017-11-13T06:44:30.315Z,3.40
2017-11-13T06:49:32.534Z,4.57
2017-11-13T06:54:34.285Z,3.70
2017-11-13T06:59:36.099Z,4.50
2017-11-13T07:04:37.819Z,3.97
2017-11-13T07:09:39.515Z,5.43
2017-11-13T07:14:41.776Z,5.70
2017-11-13T07:19:43.503Z,4.40
2017-11-13T07:24:45.193Z,3.80
2017-11-13T07:29:47.658Z,3.47
2017-11-13T07:34:49.347Z,4.10
2017-11-13T07:39:51.105Z,4.07
2017-11-13T07:44:53.563Z,4.30
2017-11-13T07:49:55.227Z,4.07
2017-11-13T07:54:57.100Z,6.10
2017-11-13T07:59:58.775Z,7.73
2017-11-13T08:05:00.483Z,5.57
2017-11-13T08:10:02.213Z,6.00
2017-11-13T08:15:07.122Z,5.70
2017-11-13T08:20:09.872Z,5.03
2017-11-13T08:25:15.787Z,4.87
2017-11-13T08:30:24.103Z,4.40
2017-11-13T08:35:27.318Z,4.90
2017-11-13T08:40:29.321Z,5.00
2017-11-13T08:45:34.058Z,5.73
2017-11-13T08:50:36.584Z,4.07
2017-11-13T08:55:42.004Z,3.57
2017-11-13T09:00:44.661Z,3.43
2017-11-13T09:05:51.990Z,4.00
2017-11-13T09:10:53.847Z,3.60
2017-11-13T09:15:57.055Z,3.00
2017-11-13T09:20:59.133Z,3.13
2017-11-13T09:26:00.925Z,3.00
2017-11-13T09:31:02.627Z,2.80
2017-11-13T09:36:04.383Z,2.70
2017-11-13T09:41:06.824Z,2.30
2017-11-13T09:46:09.256Z,2.30
2017-11-13T09:51:11.683Z,2.07
2017-11-13T09:56:13.894Z,2.07
2017-11-13T10:01:17.154Z,1.87
2017-11-13T10:06:24.588Z,2.23
2017-11-13T10:11:27.261Z,2.10
2017-11-13T10:16:34.083Z,2.10
2017-11-13T10:21:39.994Z,2.13
2017-11-13T10:26:41.915Z,1.57
2017-11-13T10:31:44.414Z,2.23
2017-11-13T10:36:50.492Z,1.70
2017-11-13T10:41:52.196Z,1.80
2017-11-13T10:46:53.927Z,1.40
2017-11-13T10:51:56.369Z,1.23
2017-11-13T10:56:58.139Z,2.40
2017-11-13T11:01:59.884Z,1.63
2017-11-13T11:07:01.639Z,3.73
2017-11-13T11:12:04.129Z,1.37
2017-11-13T11:23:00.715Z,1.17
2017-11-13T11:28:07.336Z,1.33
2017-11-13T11:33:14.045Z,1.30
2017-11-13T11:38:19.090Z,1.47
2017-11-13T11:43:25.015Z,1.30
2017-11-13T11:54:09.648Z,1.50
2017-11-13T11:59:11.396Z,1.20
2017-11-13T12:04:13.231Z,0.90
2017-11-13T12:09:14.945Z,1.23
2017-11-13T12:14:16.626Z,0.87
2017-11-13T12:19:18.346Z,0.93
2017-11-13T12:24:20.059Z,0.97
2017-11-13T12:29:21.736Z,0.77
2017-11-13T12:34:23.434Z,0.90
2017-11-13T12:39:25.117Z,0.93
2017-11-13T12:44:26.815Z,1.30
2017-11-13T12:49:28.508Z,1.00
2017-11-13T12:54:30.232Z,0.80
2017-11-13T12:59:31.969Z,1.07
2017-11-13T13:04:34.504Z,1.17
2017-11-13T13:09:36.248Z,1.30
2017-11-13T13:14:38.498Z,1.17
2017-11-13T13:19:40.512Z,0.90
2017-11-13T13:24:42.194Z,1.20
2017-11-13T13:29:44.618Z,1.27
2017-11-13T13:34:46.387Z,1.47
2017-11-13T13:39:48.897Z,1.33
2017-11-13T13:44:55.959Z,1.17
2017-11-13T13:50:00.361Z,2.30
2017-11-13T13:55:02.958Z,1.30
2017-11-13T14:00:06.238Z,0.97
2017-11-13T14:05:13.147Z,1.20
2017-11-13T14:10:16.846Z,0.80
2017-11-13T14:15:23.389Z,1.33
2017-11-13T14:20:25.988Z,1.20
2017-11-13T14:25:28.551Z,2.23
2017-11-13T14:30:34.783Z,1.10
2017-11-13T14:35:37.337Z,1.50
2017-11-13T14:40:39.705Z,1.27
2017-11-13T14:45:43.166Z,1.20
2017-11-13T14:50:46.973Z,1.87
2017-11-13T14:55:49.355Z,2.10
2017-11-13T15:00:51.766Z,4.00
2017-11-13T15:05:53.477Z,2.63
2017-11-13T15:10:55.161Z,2.60
2017-11-13T15:15:56.907Z,3.33
2017-11-13T15:20:58.609Z,3.53
2017-11-13T15:26:01.007Z,2.20
2017-11-13T15:31:02.743Z,2.23
2017-11-13T15:36:04.417Z,2.47
2017-11-13T15:41:06.118Z,2.50
2017-11-13T15:46:07.799Z,3.07
2017-11-13T15:51:09.507Z,3.20
2017-11-13T15:56:11.239Z,2.67
2017-11-13T16:01:12.920Z,2.20
2017-11-13T16:06:15.368Z,2.33
2017-11-13T16:11:17.047Z,3.43
2017-11-13T16:16:18.729Z,2.97
2017-11-13T16:21:20.453Z,2.50
2017-11-13T16:26:22.156Z,2.00
2017-11-13T16:31:23.870Z,2.67
2017-11-13T16:36:25.594Z,2.53
2017-11-13T16:41:27.322Z,3.30
2017-11-13T16:46:29.765Z,2.87
2017-11-13T16:51:31.498Z,2.90
2017-11-13T16:56:33.183Z,2.60
2017-11-13T17:01:34.872Z,3.20
2017-11-13T17:06:36.548Z,3.73
2017-11-13T17:11:38.233Z,4.40
2017-11-13T17:16:41.891Z,3.77
2017-11-13T17:21:48.269Z,4.07
2017-11-13T17:26:53.278Z,3.80
2017-11-13T17:31:56.345Z,4.93
2017-11-13T17:36:58.049Z,3.80
2017-11-13T17:42:00.463Z,5.23
2017-11-13T17:47:02.879Z,3.10
2017-11-13T17:52:05.011Z,3.20
2017-11-13T17:57:07.639Z,3.33
2017-11-13T18:02:09.956Z,3.13
2017-11-13T18:07:13.290Z,5.87
2017-11-13T18:12:16.451Z,3.80
2017-11-13T18:17:18.125Z,5.10
2017-11-13T18:22:20.536Z,4.77
2017-11-13T18:27:22.945Z,4.70
2017-11-13T18:32:24.632Z,3.17
2017-11-13T18:37:26.312Z,3.40
2017-11-13T18:42:28.449Z,3.70
2017-11-13T18:47:30.432Z,6.77
2017-11-13T18:52:32.607Z,7.60
2017-11-13T18:57:34.766Z,7.53
2017-11-13T19:02:36.510Z,7.00
2017-11-13T19:07:38.295Z,6.17
2017-11-13T19:12:39.991Z,4.83
2017-11-13T19:17:41.695Z,4.00
2017-11-13T19:22:47.839Z,3.40
2017-11-13T19:27:49.704Z,6.20
2017-11-13T19:32:51.421Z,5.07
2017-11-13T19:37:53.116Z,7.93
2017-11-13T19:42:54.860Z,6.33
2017-11-13T19:47:56.699Z,5.60
2017-11-13T19:52:58.383Z,5.03
2017-11-13T19:58:00.949Z,4.63
2017-11-13T20:03:02.716Z,4.80
2017-11-13T20:08:04.402Z,5.10
2017-11-13T20:13:06.194Z,4.30
2017-11-13T20:18:08.806Z,4.50
2017-11-13T20:23:11.624Z,4.70
2017-11-13T20:28:13.378Z,4.87
2017-11-13T20:33:15.150Z,5.30
2017-11-13T20:38:16.929Z,7.10
2017-11-13T20:43:20.846Z,6.70
2017-11-13T20:48:24.206Z,4.30
2017-11-13T20:53:25.972Z,4.73
2017-11-13T20:58:27.867Z,4.90
2017-11-13T21:03:29.697Z,4.60
2017-11-13T21:08:31.439Z,7.60
2017-11-13T21:13:33.143Z,5.17
2017-11-13T21:18:34.859Z,5.20
2017-11-13T21:23:36.731Z,6.53
2017-11-13T21:28:38.486Z,5.83
2017-11-13T21:33:40.196Z,5.37
2017-11-13T21:38:41.990Z,4.40
2017-11-13T21:43:43.736Z,4.93
2017-11-13T21:48:45.435Z,5.20
2017-11-13T21:53:47.140Z,5.20
2017-11-13T21:58:48.927Z,5.10
2017-11-13T22:03:51.377Z,5.40
2017-11-13T22:08:53.788Z,5.00
2017-11-13T22:13:55.820Z,5.20
2017-11-13T22:18:57.659Z,4.40
2017-11-13T22:24:00.171Z,5.33
2017-11-13T22:29:02.644Z,5.20
2017-11-13T22:34:04.404Z,4.73
2017-11-13T22:39:06.154Z,4.70
2017-11-13T22:44:07.979Z,5.30
2017-11-13T22:49:10.424Z,5.20
2017-11-13T22:54:12.190Z,5.27
2017-11-13T22:59:14.528Z,4.60
2017-11-13T23:04:16.239Z,5.33
2017-11-13T23:09:18.013Z,3.90
2017-11-13T23:14:20.492Z,4.23
2017-11-13T23:19:22.223Z,5.07
2017-11-13T23:24:24.675Z,4.77
2017-11-13T23:29:26.441Z,5.20
2017-11-13T23:34:28.912Z,5.73
2017-11-13T23:39:30.630Z,5.43
2017-11-13T23:44:32.379Z,5.97
2017-11-13T23:49:34.098Z,4.57
2017-11-13T23:54:35.899Z,5.50
2017-11-13T23:59:37.614Z,5.20
